地図

経路データ

SID SEASON NUMBER BASIN SUBBASIN NAME ISO_TIME NATURE LAT LON WMO_WIND WMO_PRES WMO_AGENCY TRACK_TYPE DIST2LAND LANDFALL IFLAG USA_AGENCY USA_ATCF_ID USA_LAT USA_LON USA_RECORD USA_STATUS USA_WIND USA_PRES USA_SSHS USA_R34_NE USA_R34_SE USA_R34_SW USA_R34_NW USA_R50_NE USA_R50_SE USA_R50_SW USA_R50_NW USA_R64_NE USA_R64_SE USA_R64_SW USA_R64_NW USA_POCI USA_ROCI USA_RMW USA_EYE TOKYO_LAT TOKYO_LON TOKYO_GRADE TOKYO_WIND TOKYO_PRES TOKYO_R50_DIR TOKYO_R50_LONG TOKYO_R50_SHORT TOKYO_R30_DIR TOKYO_R30_LONG TOKYO_R30_SHORT TOKYO_LAND CMA_LAT CMA_LON CMA_CAT CMA_WIND CMA_PRES HKO_LAT HKO_LON HKO_CAT HKO_WIND HKO_PRES NEWDELHI_LAT NEWDELHI_LON NEWDELHI_GRADE NEWDELHI_WIND NEWDELHI_PRES NEWDELHI_CI NEWDELHI_DP NEWDELHI_POCI REUNION_LAT REUNION_LON REUNION_TYPE REUNION_WIND REUNION_PRES REUNION_TNUM REUNION_CI REUNION_RMW REUNION_R34_NE REUNION_R34_SE REUNION_R34_SW REUNION_R34_NW REUNION_R50_NE REUNION_R50_SE REUNION_R50_SW REUNION_R50_NW REUNION_R64_NE REUNION_R64_SE REUNION_R64_SW REUNION_R64_NW BOM_LAT BOM_LON BOM_TYPE BOM_WIND BOM_PRES BOM_TNUM BOM_CI BOM_RMW BOM_R34_NE BOM_R34_SE BOM_R34_SW BOM_R34_NW BOM_R50_NE BOM_R50_SE BOM_R50_SW BOM_R50_NW BOM_R64_NE BOM_R64_SE BOM_R64_SW BOM_R64_NW BOM_ROCI BOM_POCI BOM_EYE BOM_POS_METHOD BOM_PRES_METHOD NADI_LAT NADI_LON NADI_CAT NADI_WIND NADI_PRES WELLINGTON_LAT WELLINGTON_LON WELLINGTON_WIND WELLINGTON_PRES DS824_LAT DS824_LON DS824_STAGE DS824_WIND DS824_PRES TD9636_LAT TD9636_LON TD9636_STAGE TD9636_WIND TD9636_PRES TD9635_LAT TD9635_LON TD9635_WIND TD9635_PRES TD9635_ROCI NEUMANN_LAT NEUMANN_LON NEUMANN_CLASS NEUMANN_WIND NEUMANN_PRES MLC_LAT MLC_LON MLC_CLASS MLC_WIND MLC_PRES USA_GUST BOM_GUST BOM_GUST_PER REUNION_GUST REUNION_GUST_PER USA_SEAHGT USA_SEARAD_NE USA_SEARAD_SE USA_SEARAD_SW USA_SEARAD_NW STORM_SPEED STORM_DIR
1901001S08073 1901 2 SI MM NOT_NAMED 1900-12-31 18:00:00 NR -8.00000 72.7000 main 1781 1781 __________O___ -1 -8.00000 72.7000 7 3 190
1901001S08073 1901 2 SI MM NOT_NAMED 1900-12-31 21:00:00 NR -8.14063 72.6750 main 1791 1791 __________P___ -1 -8.14063 72.6750 7 3 191
1901001S08073 1901 2 SI MM NOT_NAMED 1901-01-01 00:00:00 NR -8.28500 72.6500 main 1810 1810 __________P___ -1 -8.28500 72.6500 7 3 191
1901001S08073 1901 2 SI MM NOT_NAMED 1901-01-01 03:00:00 NR -8.43688 72.6250 main 1825 1825 __________P___ -1 -8.43688 72.6250 7 3 189
1901001S08073 1901 2 SI MM NOT_NAMED 1901-01-01 06:00:00 NR -8.60000 72.6000 main 1845 1845 __________O___ -1 -8.60000 72.6000 7 3 188
1901001S08073 1901 2 SI MM NOT_NAMED 1901-01-01 09:00:00 NR -8.77594 72.5750 main 1865 1865 __________P___ -1 -8.77594 72.5750 7 4 190
1901001S08073 1901 2 SI MM NOT_NAMED 1901-01-01 12:00:00 NR -8.95750 72.5500 main 1885 1885 __________P___ -1 -8.95750 72.5500 7 4 190
1901001S08073 1901 2 SI MM NOT_NAMED 1901-01-01 15:00:00 NR -9.13531 72.5250 main 1900 1900 __________P___ -1 -9.13531 72.5250 7 3 189
1901001S08073 1901 2 SI MM NOT_NAMED 1901-01-01 18:00:00 NR -9.30000 72.5000 main 1920 1920 __________O___ -1 -9.30000 72.5000 7 3 191
1901001S08073 1901 2 SI MM NOT_NAMED 1901-01-01 21:00:00 NR -9.43125 72.4750 main 1930 1930 __________P___ -1 -9.43125 72.4750 7 3 193
1901001S08073 1901 2 SI MM NOT_NAMED 1901-01-02 00:00:00 NR -9.55000 72.4500 main 1945 1945 __________P___ -1 -9.55000 72.4500 7 2 193
1901001S08073 1901 2 SI MM NOT_NAMED 1901-01-02 03:00:00 NR -9.66875 72.4250 main 1960 1953 __________P___ -1 -9.66875 72.4250 7 3 193
1901001S08073 1901 2 SI MM NOT_NAMED 1901-01-02 06:00:00 NR -9.80000 72.4000 main 1953 1946 __________O___ -1 -9.80000 72.4000 7 3 188
1901001S08073 1901 2 SI MM NOT_NAMED 1901-01-02 09:00:00 NR -9.95656 72.3790 main 1939 1933 __________P___ -1 -9.95656 72.3790 7 3 188
1901001S08073 1901 2 SI MM NOT_NAMED 1901-01-02 12:00:00 NR -10.1275 72.3575 main 1933 1910 __________P___ -1 -10.1275 72.3575 7 4 187
1901001S08073 1901 2 SI MM NOT_NAMED 1901-01-02 15:00:00 NR -10.3097 72.3322 main 1910 1897 __________P___ -1 -10.3097 72.3322 7 4 189
1901001S08073 1901 2 SI MM NOT_NAMED 1901-01-02 18:00:00 NR -10.5000 72.3000 main 1897 1884 __________O___ -1 -10.5000 72.3000 7 4 190
1901001S08073 1901 2 SI MM NOT_NAMED 1901-01-02 21:00:00 NR -10.6956 72.2588 main 1884 1862 __________P___ -1 -10.6956 72.2588 7 4 193
1901001S08073 1901 2 SI MM NOT_NAMED 1901-01-03 00:00:00 NR -10.8950 72.2101 main 1862 1849 __________P___ -1 -10.8950 72.2101 7 4 194
1901001S08073 1901 2 SI MM NOT_NAMED 1901-01-03 03:00:00 NR -11.0969 72.1563 main 1849 1827 __________P___ -1 -11.0969 72.1563 7 4 195
1901001S08073 1901 2 SI MM NOT_NAMED 1901-01-03 06:00:00 NR -11.3000 72.1000 main 1827 __________O___ -1 -11.3000 72.1000 7 4 194

IBTrACS Databaseについて

本データベースは、米国NOAAが公開する1842年以降の世界の熱帯低気圧のベストトラックデータアーカイブInternational Best Track Archive for Climate Stewardship (IBTrACS)を、ウェブで閲覧しやすい形式に変換したものです。

最終更新日:2021-12-03